sensor_id;sensor_type;location;lat;lon;timestamp;temperature;humidity
2825;DHT22;1420;51.324;12.344;2024-01-25T00:01:40;8.90;99.90
2825;DHT22;1420;51.324;12.344;2024-01-25T00:04:08;8.90;99.90
2825;DHT22;1420;51.324;12.344;2024-01-25T00:06:36;8.90;99.90
2825;DHT22;1420;51.324;12.344;2024-01-25T00:09:04;9.10;99.90
2825;DHT22;1420;51.324;12.344;2024-01-25T00:11:32;8.90;99.90
2825;DHT22;1420;51.324;12.344;2024-01-25T00:14:00;9.10;99.90
2825;DHT22;1420;51.324;12.344;2024-01-25T00:16:28;9.00;99.90
2825;DHT22;1420;51.324;12.344;2024-01-25T00:18:56;9.00;99.90
2825;DHT22;1420;51.324;12.344;2024-01-25T00:21:24;9.00;99.90
2825;DHT22;1420;51.324;12.344;2024-01-25T00:23:51;9.20;99.90
2825;DHT22;1420;51.324;12.344;2024-01-25T00:26:19;9.10;99.90
2825;DHT22;1420;51.324;12.344;2024-01-25T00:28:46;9.00;99.90
2825;DHT22;1420;51.324;12.344;2024-01-25T00:31:14;9.10;99.90
2825;DHT22;1420;51.324;12.344;2024-01-25T00:33:41;9.10;99.90
2825;DHT22;1420;51.324;12.344;2024-01-25T00:36:09;9.00;99.90
2825;DHT22;1420;51.324;12.344;2024-01-25T00:38:37;8.80;99.90
2825;DHT22;1420;51.324;12.344;2024-01-25T00:41:04;8.80;99.90
2825;DHT22;1420;51.324;12.344;2024-01-25T00:43:32;8.90;99.90
2825;DHT22;1420;51.324;12.344;2024-01-25T00:45:59;8.90;99.90
2825;DHT22;1420;51.324;12.344;2024-01-25T00:48:26;8.90;99.90
2825;DHT22;1420;51.324;12.344;2024-01-25T00:50:54;8.80;99.90
2825;DHT22;1420;51.324;12.344;2024-01-25T00:53:21;8.90;99.90
2825;DHT22;1420;51.324;12.344;2024-01-25T00:55:48;8.80;99.90
2825;DHT22;1420;51.324;12.344;2024-01-25T00:58:17;8.70;99.90
2825;DHT22;1420;51.324;12.344;2024-01-25T01:00:44;8.70;99.90
2825;DHT22;1420;51.324;12.344;2024-01-25T01:03:11;8.80;99.90
2825;DHT22;1420;51.324;12.344;2024-01-25T01:05:39;9.10;99.90
2825;DHT22;1420;51.324;12.344;2024-01-25T01:08:07;8.90;99.90
2825;DHT22;1420;51.324;12.344;2024-01-25T01:10:35;8.90;99.90
2825;DHT22;1420;51.324;12.344;2024-01-25T01:13:02;8.90;99.90
2825;DHT22;1420;51.324;12.344;2024-01-25T01:15:29;9.10;99.90
2825;DHT22;1420;51.324;12.344;2024-01-25T01:17:56;8.80;99.90
2825;DHT22;1420;51.324;12.344;2024-01-25T01:20:24;9.00;99.90
2825;DHT22;1420;51.324;12.344;2024-01-25T01:22:51;8.90;99.90
2825;DHT22;1420;51.324;12.344;2024-01-25T01:25:18;8.90;99.90
2825;DHT22;1420;51.324;12.344;2024-01-25T01:27:45;8.80;99.90
2825;DHT22;1420;51.324;12.344;2024-01-25T01:30:12;8.80;99.90
2825;DHT22;1420;51.324;12.344;2024-01-25T01:32:40;8.60;99.90
2825;DHT22;1420;51.324;12.344;2024-01-25T01:35:07;8.70;99.90
2825;DHT22;1420;51.324;12.344;2024-01-25T01:37:34;9.00;99.90
2825;DHT22;1420;51.324;12.344;2024-01-25T01:40:01;8.80;99.90
2825;DHT22;1420;51.324;12.344;2024-01-25T01:42:30;8.90;99.90
2825;DHT22;1420;51.324;12.344;2024-01-25T01:44:57;8.90;99.90
2825;DHT22;1420;51.324;12.344;2024-01-25T01:47:25;8.70;99.90
2825;DHT22;1420;51.324;12.344;2024-01-25T01:49:53;8.80;99.90
2825;DHT22;1420;51.324;12.344;2024-01-25T01:52:21;8.80;99.90
2825;DHT22;1420;51.324;12.344;2024-01-25T01:54:49;8.80;99.90
2825;DHT22;1420;51.324;12.344;2024-01-25T01:57:17;8.80;99.90
2825;DHT22;1420;51.324;12.344;2024-01-25T01:59:45;8.70;99.90
2825;DHT22;1420;51.324;12.344;2024-01-25T02:02:13;8.70;99.90
2825;DHT22;1420;51.324;12.344;2024-01-25T02:04:40;8.70;99.90
2825;DHT22;1420;51.324;12.344;2024-01-25T02:07:07;8.80;99.90
2825;DHT22;1420;51.324;12.344;2024-01-25T02:09:35;8.70;99.90
2825;DHT22;1420;51.324;12.344;2024-01-25T02:12:04;8.80;99.90
2825;DHT22;1420;51.324;12.344;2024-01-25T02:14:31;8.70;99.90
2825;DHT22;1420;51.324;12.344;2024-01-25T02:16:59;8.50;99.90
2825;DHT22;1420;51.324;12.344;2024-01-25T02:19:26;8.40;99.90
2825;DHT22;1420;51.324;12.344;2024-01-25T02:21:54;8.60;99.90
2825;DHT22;1420;51.324;12.344;2024-01-25T02:24:21;8.60;99.90
2825;DHT22;1420;51.324;12.344;2024-01-25T02:26:48;8.60;99.90
2825;DHT22;1420;51.324;12.344;2024-01-25T02:29:15;8.70;99.90
2825;DHT22;1420;51.324;12.344;2024-01-25T02:31:42;8.50;99.90
2825;DHT22;1420;51.324;12.344;2024-01-25T02:34:09;8.70;99.90
2825;DHT22;1420;51.324;12.344;2024-01-25T02:36:37;8.80;99.90
2825;DHT22;1420;51.324;12.344;2024-01-25T02:39:04;8.60;99.90
2825;DHT22;1420;51.324;12.344;2024-01-25T02:41:31;8.50;99.90
2825;DHT22;1420;51.324;12.344;2024-01-25T02:43:59;8.40;99.90
2825;DHT22;1420;51.324;12.344;2024-01-25T02:46:26;8.40;99.90
2825;DHT22;1420;51.324;12.344;2024-01-25T02:48:53;8.30;99.90
2825;DHT22;1420;51.324;12.344;2024-01-25T02:51:20;8.50;99.90
2825;DHT22;1420;51.324;12.344;2024-01-25T02:53:47;8.40;99.90
2825;DHT22;1420;51.324;12.344;2024-01-25T02:56:14;8.40;99.90
2825;DHT22;1420;51.324;12.344;2024-01-25T02:58:42;8.30;99.90
2825;DHT22;1420;51.324;12.344;2024-01-25T03:01:09;8.50;99.90
2825;DHT22;1420;51.324;12.344;2024-01-25T03:03:36;8.20;99.90
2825;DHT22;1420;51.324;12.344;2024-01-25T03:06:05;8.30;99.90
2825;DHT22;1420;51.324;12.344;2024-01-25T03:08:32;8.30;99.90
2825;DHT22;1420;51.324;12.344;2024-01-25T03:11:00;8.10;99.90
2825;DHT22;1420;51.324;12.344;2024-01-25T03:13:28;8.10;99.90
2825;DHT22;1420;51.324;12.344;2024-01-25T03:15:55;8.10;99.90
2825;DHT22;1420;51.324;12.344;2024-01-25T03:18:22;8.10;99.90
2825;DHT22;1420;51.324;12.344;2024-01-25T03:20:49;8.00;99.90
2825;DHT22;1420;51.324;12.344;2024-01-25T03:23:17;7.90;99.90
2825;DHT22;1420;51.324;12.344;2024-01-25T03:25:44;8.00;99.90
2825;DHT22;1420;51.324;12.344;2024-01-25T03:28:11;8.00;99.90
2825;DHT22;1420;51.324;12.344;2024-01-25T03:30:39;8.00;99.90
2825;DHT22;1420;51.324;12.344;2024-01-25T03:33:07;8.10;99.90
2825;DHT22;1420;51.324;12.344;2024-01-25T03:35:35;8.00;99.90
2825;DHT22;1420;51.324;12.344;2024-01-25T03:38:03;8.00;99.90
2825;DHT22;1420;51.324;12.344;2024-01-25T03:40:31;8.00;99.90
2825;DHT22;1420;51.324;12.344;2024-01-25T03:42:59;7.90;99.90
2825;DHT22;1420;51.324;12.344;2024-01-25T03:45:27;7.80;99.90
2825;DHT22;1420;51.324;12.344;2024-01-25T03:47:55;7.80;99.90
2825;DHT22;1420;51.324;12.344;2024-01-25T03:50:23;7.80;99.90
2825;DHT22;1420;51.324;12.344;2024-01-25T03:52:51;8.20;99.90
2825;DHT22;1420;51.324;12.344;2024-01-25T03:55:18;8.10;99.90
2825;DHT22;1420;51.324;12.344;2024-01-25T03:57:45;7.90;99.90
2825;DHT22;1420;51.324;12.344;2024-01-25T04:00:13;7.90;99.90
2825;DHT22;1420;51.324;12.344;2024-01-25T04:02:40;7.80;99.90
2825;DHT22;1420;51.324;12.344;2024-01-25T04:05:08;7.90;99.90
2825;DHT22;1420;51.324;12.344;2024-01-25T04:07:36;8.20;99.90
2825;DHT22;1420;51.324;12.344;2024-01-25T04:10:03;8.10;99.90
2825;DHT22;1420;51.324;12.344;2024-01-25T04:12:30;7.90;99.90
2825;DHT22;1420;51.324;12.344;2024-01-25T04:14:58;8.10;99.90
2825;DHT22;1420;51.324;12.344;2024-01-25T04:17:25;8.00;99.90
2825;DHT22;1420;51.324;12.344;2024-01-25T04:19:52;8.30;99.90
2825;DHT22;1420;51.324;12.344;2024-01-25T04:22:19;8.10;99.90
2825;DHT22;1420;51.324;12.344;2024-01-25T04:24:46;8.10;99.90
2825;DHT22;1420;51.324;12.344;2024-01-25T04:27:14;8.10;99.90
2825;DHT22;1420;51.324;12.344;2024-01-25T04:29:41;8.10;99.90
2825;DHT22;1420;51.324;12.344;2024-01-25T04:32:08;8.10;99.90
2825;DHT22;1420;51.324;12.344;2024-01-25T04:34:36;8.20;99.90
2825;DHT22;1420;51.324;12.344;2024-01-25T04:37:03;8.00;99.90
2825;DHT22;1420;51.324;12.344;2024-01-25T04:39:31;8.10;99.90
2825;DHT22;1420;51.324;12.344;2024-01-25T04:41:59;8.10;99.90
2825;DHT22;1420;51.324;12.344;2024-01-25T04:44:27;7.90;99.90
2825;DHT22;1420;51.324;12.344;2024-01-25T04:46:55;7.90;99.90
2825;DHT22;1420;51.324;12.344;2024-01-25T04:49:23;8.10;99.90
2825;DHT22;1420;51.324;12.344;2024-01-25T04:51:51;8.20;99.90
2825;DHT22;1420;51.324;12.344;2024-01-25T04:54:19;8.00;99.90
2825;DHT22;1420;51.324;12.344;2024-01-25T04:56:47;8.00;99.90
2825;DHT22;1420;51.324;12.344;2024-01-25T04:59:14;8.00;99.90
2825;DHT22;1420;51.324;12.344;2024-01-25T05:01:41;8.10;99.90
2825;DHT22;1420;51.324;12.344;2024-01-25T05:04:08;8.10;99.90
2825;DHT22;1420;51.324;12.344;2024-01-25T05:06:36;8.00;99.90
2825;DHT22;1420;51.324;12.344;2024-01-25T05:09:03;7.80;99.90
2825;DHT22;1420;51.324;12.344;2024-01-25T05:11:30;7.80;99.90
2825;DHT22;1420;51.324;12.344;2024-01-25T05:13:58;7.90;99.90
2825;DHT22;1420;51.324;12.344;2024-01-25T05:16:26;8.00;99.90
2825;DHT22;1420;51.324;12.344;2024-01-25T05:18:53;8.00;99.90
2825;DHT22;1420;51.324;12.344;2024-01-25T05:21:20;8.20;99.90
2825;DHT22;1420;51.324;12.344;2024-01-25T05:23:48;8.10;99.90
2825;DHT22;1420;51.324;12.344;2024-01-25T05:26:16;8.10;99.90
2825;DHT22;1420;51.324;12.344;2024-01-25T05:28:44;7.90;99.90
2825;DHT22;1420;51.324;12.344;2024-01-25T05:31:12;7.80;99.90
2825;DHT22;1420;51.324;12.344;2024-01-25T05:33:40;8.30;99.90
2825;DHT22;1420;51.324;12.344;2024-01-25T05:36:08;8.10;99.90
2825;DHT22;1420;51.324;12.344;2024-01-25T05:38:35;8.00;99.90
2825;DHT22;1420;51.324;12.344;2024-01-25T05:41:03;7.90;99.90
2825;DHT22;1420;51.324;12.344;2024-01-25T05:43:30;8.10;99.90
2825;DHT22;1420;51.324;12.344;2024-01-25T05:45:57;8.10;99.90
2825;DHT22;1420;51.324;12.344;2024-01-25T05:48:25;8.10;99.90
2825;DHT22;1420;51.324;12.344;2024-01-25T05:50:52;7.90;99.90
2825;DHT22;1420;51.324;12.344;2024-01-25T05:53:19;8.00;99.90
2825;DHT22;1420;51.324;12.344;2024-01-25T05:55:47;8.40;99.90
2825;DHT22;1420;51.324;12.344;2024-01-25T05:58:15;8.20;99.90
2825;DHT22;1420;51.324;12.344;2024-01-25T06:00:42;8.30;99.90
2825;DHT22;1420;51.324;12.344;2024-01-25T06:03:09;8.40;99.90
2825;DHT22;1420;51.324;12.344;2024-01-25T06:05:36;8.30;99.90
2825;DHT22;1420;51.324;12.344;2024-01-25T06:08:04;8.30;99.90
2825;DHT22;1420;51.324;12.344;2024-01-25T06:10:31;8.20;99.90
2825;DHT22;1420;51.324;12.344;2024-01-25T06:12:58;8.20;99.90
2825;DHT22;1420;51.324;12.344;2024-01-25T06:15:25;7.90;99.90
2825;DHT22;1420;51.324;12.344;2024-01-25T06:17:52;7.60;99.90
2825;DHT22;1420;51.324;12.344;2024-01-25T06:20:21;7.60;99.90
2825;DHT22;1420;51.324;12.344;2024-01-25T06:22:50;7.60;99.90
2825;DHT22;1420;51.324;12.344;2024-01-25T06:25:17;7.60;99.90
2825;DHT22;1420;51.324;12.344;2024-01-25T06:27:44;7.50;99.90
2825;DHT22;1420;51.324;12.344;2024-01-25T06:30:12;7.50;99.90
2825;DHT22;1420;51.324;12.344;2024-01-25T06:32:39;7.50;99.90
2825;DHT22;1420;51.324;12.344;2024-01-25T06:35:07;7.50;99.90
2825;DHT22;1420;51.324;12.344;2024-01-25T06:37:34;7.50;99.90
2825;DHT22;1420;51.324;12.344;2024-01-25T06:40:01;7.50;99.90
2825;DHT22;1420;51.324;12.344;2024-01-25T06:42:29;7.50;99.90
2825;DHT22;1420;51.324;12.344;2024-01-25T06:44:56;7.50;99.90
2825;DHT22;1420;51.324;12.344;2024-01-25T06:47:23;7.50;99.90
2825;DHT22;1420;51.324;12.344;2024-01-25T06:49:50;7.60;99.90
2825;DHT22;1420;51.324;12.344;2024-01-25T06:52:18;7.60;99.90
2825;DHT22;1420;51.324;12.344;2024-01-25T06:54:45;7.60;99.90
2825;DHT22;1420;51.324;12.344;2024-01-25T06:57:12;7.60;99.90
2825;DHT22;1420;51.324;12.344;2024-01-25T06:59:40;7.60;99.90
2825;DHT22;1420;51.324;12.344;2024-01-25T07:02:08;7.50;99.90
2825;DHT22;1420;51.324;12.344;2024-01-25T07:04:36;7.60;99.90
2825;DHT22;1420;51.324;12.344;2024-01-25T07:07:03;7.50;99.90
2825;DHT22;1420;51.324;12.344;2024-01-25T07:09:31;7.60;99.90
2825;DHT22;1420;51.324;12.344;2024-01-25T07:11:59;7.60;99.90
2825;DHT22;1420;51.324;12.344;2024-01-25T07:14:26;7.50;99.90
2825;DHT22;1420;51.324;12.344;2024-01-25T07:16:53;7.60;99.90
2825;DHT22;1420;51.324;12.344;2024-01-25T07:19:20;7.60;99.90
2825;DHT22;1420;51.324;12.344;2024-01-25T07:21:48;7.50;99.90
2825;DHT22;1420;51.324;12.344;2024-01-25T07:24:15;7.50;99.90
2825;DHT22;1420;51.324;12.344;2024-01-25T07:26:42;7.60;99.90
2825;DHT22;1420;51.324;12.344;2024-01-25T07:29:09;7.50;99.90
2825;DHT22;1420;51.324;12.344;2024-01-25T07:31:37;7.50;99.90
2825;DHT22;1420;51.324;12.344;2024-01-25T07:34:05;7.50;99.90
2825;DHT22;1420;51.324;12.344;2024-01-25T07:36:33;7.60;99.90
2825;DHT22;1420;51.324;12.344;2024-01-25T07:39:01;7.60;99.90
2825;DHT22;1420;51.324;12.344;2024-01-25T07:41:29;7.60;99.90
2825;DHT22;1420;51.324;12.344;2024-01-25T07:43:56;7.50;99.90
2825;DHT22;1420;51.324;12.344;2024-01-25T07:46:24;7.60;99.90
2825;DHT22;1420;51.324;12.344;2024-01-25T07:48:51;7.60;99.90
2825;DHT22;1420;51.324;12.344;2024-01-25T07:51:18;7.60;99.90
2825;DHT22;1420;51.324;12.344;2024-01-25T07:53:45;7.70;99.90
2825;DHT22;1420;51.324;12.344;2024-01-25T07:56:12;7.60;99.90
2825;DHT22;1420;51.324;12.344;2024-01-25T07:58:40;7.50;99.90
2825;DHT22;1420;51.324;12.344;2024-01-25T08:01:07;7.50;99.90
2825;DHT22;1420;51.324;12.344;2024-01-25T08:03:36;7.50;99.90
2825;DHT22;1420;51.324;12.344;2024-01-25T08:06:02;7.60;99.90
2825;DHT22;1420;51.324;12.344;2024-01-25T08:08:30;7.60;99.90
2825;DHT22;1420;51.324;12.344;2024-01-25T08:10:57;7.60;99.90
2825;DHT22;1420;51.324;12.344;2024-01-25T08:13:24;7.60;99.90
2825;DHT22;1420;51.324;12.344;2024-01-25T08:15:51;7.50;99.90
2825;DHT22;1420;51.324;12.344;2024-01-25T08:18:18;7.70;99.90
2825;DHT22;1420;51.324;12.344;2024-01-25T08:20:46;7.60;99.90
2825;DHT22;1420;51.324;12.344;2024-01-25T08:23:14;7.60;99.90
2825;DHT22;1420;51.324;12.344;2024-01-25T08:25:42;7.70;99.90
2825;DHT22;1420;51.324;12.344;2024-01-25T08:28:10;7.60;99.90
2825;DHT22;1420;51.324;12.344;2024-01-25T08:30:37;7.60;99.90
2825;DHT22;1420;51.324;12.344;2024-01-25T08:33:04;7.60;99.90
2825;DHT22;1420;51.324;12.344;2024-01-25T08:35:31;7.70;99.90
2825;DHT22;1420;51.324;12.344;2024-01-25T08:37:58;7.60;99.90
2825;DHT22;1420;51.324;12.344;2024-01-25T08:40:26;7.60;99.90
2825;DHT22;1420;51.324;12.344;2024-01-25T08:42:53;7.70;99.90
2825;DHT22;1420;51.324;12.344;2024-01-25T08:45:20;7.70;99.90
2825;DHT22;1420;51.324;12.344;2024-01-25T08:47:47;7.90;99.90
2825;DHT22;1420;51.324;12.344;2024-01-25T08:50:14;7.80;99.90
2825;DHT22;1420;51.324;12.344;2024-01-25T08:52:42;7.90;99.90
2825;DHT22;1420;51.324;12.344;2024-01-25T08:55:10;7.80;99.90
2825;DHT22;1420;51.324;12.344;2024-01-25T08:57:37;7.80;99.90
2825;DHT22;1420;51.324;12.344;2024-01-25T09:00:04;7.90;99.90
2825;DHT22;1420;51.324;12.344;2024-01-25T09:02:32;8.10;99.90
2825;DHT22;1420;51.324;12.344;2024-01-25T09:05:00;8.20;99.90
2825;DHT22;1420;51.324;12.344;2024-01-25T09:07:28;8.10;99.90
2825;DHT22;1420;51.324;12.344;2024-01-25T09:09:55;8.10;99.90
2825;DHT22;1420;51.324;12.344;2024-01-25T09:12:22;8.00;99.90
2825;DHT22;1420;51.324;12.344;2024-01-25T09:14:50;8.10;99.90
2825;DHT22;1420;51.324;12.344;2024-01-25T09:17:18;8.10;99.90
2825;DHT22;1420;51.324;12.344;2024-01-25T09:19:48;8.00;99.90
2825;DHT22;1420;51.324;12.344;2024-01-25T09:22:15;8.00;99.90
2825;DHT22;1420;51.324;12.344;2024-01-25T09:24:43;8.00;99.90
2825;DHT22;1420;51.324;12.344;2024-01-25T09:27:12;8.20;99.90
2825;DHT22;1420;51.324;12.344;2024-01-25T09:29:40;8.20;99.90
2825;DHT22;1420;51.324;12.344;2024-01-25T09:32:08;8.20;99.90
2825;DHT22;1420;51.324;12.344;2024-01-25T09:34:37;8.10;99.90
2825;DHT22;1420;51.324;12.344;2024-01-25T09:37:04;8.10;99.90
2825;DHT22;1420;51.324;12.344;2024-01-25T09:39:31;8.00;99.90
2825;DHT22;1420;51.324;12.344;2024-01-25T09:41:59;8.10;99.90
2825;DHT22;1420;51.324;12.344;2024-01-25T09:44:26;8.10;99.90
2825;DHT22;1420;51.324;12.344;2024-01-25T09:46:53;8.10;99.90
2825;DHT22;1420;51.324;12.344;2024-01-25T09:49:20;8.20;99.90
2825;DHT22;1420;51.324;12.344;2024-01-25T09:51:48;8.10;99.90
2825;DHT22;1420;51.324;12.344;2024-01-25T09:54:15;8.20;99.90
2825;DHT22;1420;51.324;12.344;2024-01-25T09:56:42;8.30;99.90
2825;DHT22;1420;51.324;12.344;2024-01-25T09:59:09;8.40;99.90
2825;DHT22;1420;51.324;12.344;2024-01-25T10:01:37;8.50;99.90
2825;DHT22;1420;51.324;12.344;2024-01-25T10:04:06;8.50;99.90
2825;DHT22;1420;51.324;12.344;2024-01-25T10:06:31;8.70;99.90
2825;DHT22;1420;51.324;12.344;2024-01-25T10:08:58;8.70;99.90
2825;DHT22;1420;51.324;12.344;2024-01-25T10:11:25;8.70;99.90
2825;DHT22;1420;51.324;12.344;2024-01-25T10:13:53;8.90;99.90
2825;DHT22;1420;51.324;12.344;2024-01-25T10:16:20;9.00;99.90
2825;DHT22;1420;51.324;12.344;2024-01-25T10:18:47;9.10;99.90
2825;DHT22;1420;51.324;12.344;2024-01-25T10:21:15;9.20;99.90
2825;DHT22;1420;51.324;12.344;2024-01-25T10:23:45;9.10;99.90
2825;DHT22;1420;51.324;12.344;2024-01-25T10:26:12;9.10;99.90
2825;DHT22;1420;51.324;12.344;2024-01-25T10:28:50;9.10;99.90
2825;DHT22;1420;51.324;12.344;2024-01-25T10:31:23;9.20;99.90
2825;DHT22;1420;51.324;12.344;2024-01-25T10:33:52;9.40;99.90
2825;DHT22;1420;51.324;12.344;2024-01-25T10:36:20;9.60;99.90
2825;DHT22;1420;51.324;12.344;2024-01-25T10:38:46;9.60;99.90
2825;DHT22;1420;51.324;12.344;2024-01-25T10:41:13;9.70;99.90
2825;DHT22;1420;51.324;12.344;2024-01-25T10:43:40;9.90;99.90
2825;DHT22;1420;51.324;12.344;2024-01-25T10:46:07;10.00;99.90
2825;DHT22;1420;51.324;12.344;2024-01-25T10:48:34;9.90;99.90
2825;DHT22;1420;51.324;12.344;2024-01-25T10:51:02;9.60;99.90
2825;DHT22;1420;51.324;12.344;2024-01-25T10:53:31;9.50;99.90
2825;DHT22;1420;51.324;12.344;2024-01-25T10:55:57;9.30;99.90
2825;DHT22;1420;51.324;12.344;2024-01-25T10:58:24;9.30;99.90
2825;DHT22;1420;51.324;12.344;2024-01-25T11:00:52;9.30;99.90
2825;DHT22;1420;51.324;12.344;2024-01-25T11:03:19;9.20;99.90
2825;DHT22;1420;51.324;12.344;2024-01-25T11:05:46;9.10;99.90
2825;DHT22;1420;51.324;12.344;2024-01-25T11:08:17;9.00;99.90
2825;DHT22;1420;51.324;12.344;2024-01-25T11:10:43;9.00;99.90
2825;DHT22;1420;51.324;12.344;2024-01-25T11:13:13;9.10;99.90
2825;DHT22;1420;51.324;12.344;2024-01-25T11:15:38;9.20;99.90
2825;DHT22;1420;51.324;12.344;2024-01-25T11:18:07;9.30;99.90
2825;DHT22;1420;51.324;12.344;2024-01-25T11:20:33;9.40;99.90
2825;DHT22;1420;51.324;12.344;2024-01-25T11:23:02;9.30;99.90
2825;DHT22;1420;51.324;12.344;2024-01-25T11:25:29;9.30;99.90
2825;DHT22;1420;51.324;12.344;2024-01-25T11:27:56;9.40;99.90
2825;DHT22;1420;51.324;12.344;2024-01-25T11:30:23;9.50;99.90
2825;DHT22;1420;51.324;12.344;2024-01-25T11:32:51;9.50;99.90
2825;DHT22;1420;51.324;12.344;2024-01-25T11:35:19;9.40;99.90
2825;DHT22;1420;51.324;12.344;2024-01-25T11:37:48;9.20;99.90
2825;DHT22;1420;51.324;12.344;2024-01-25T11:40:14;9.10;99.90
2825;DHT22;1420;51.324;12.344;2024-01-25T11:42:42;9.10;99.90
2825;DHT22;1420;51.324;12.344;2024-01-25T11:45:10;9.10;99.90
2825;DHT22;1420;51.324;12.344;2024-01-25T11:47:38;9.10;99.90
2825;DHT22;1420;51.324;12.344;2024-01-25T11:50:06;9.10;99.90
2825;DHT22;1420;51.324;12.344;2024-01-25T11:52:34;9.20;99.90
2825;DHT22;1420;51.324;12.344;2024-01-25T11:55:03;9.20;99.90
2825;DHT22;1420;51.324;12.344;2024-01-25T11:57:30;9.10;99.90
2825;DHT22;1420;51.324;12.344;2024-01-25T11:59:57;9.10;99.90
2825;DHT22;1420;51.324;12.344;2024-01-25T12:02:25;9.10;99.90
2825;DHT22;1420;51.324;12.344;2024-01-25T12:04:52;9.00;99.90
2825;DHT22;1420;51.324;12.344;2024-01-25T12:07:20;9.00;99.90
2825;DHT22;1420;51.324;12.344;2024-01-25T12:09:57;9.10;99.90
2825;DHT22;1420;51.324;12.344;2024-01-25T12:12:23;9.00;99.90
2825;DHT22;1420;51.324;12.344;2024-01-25T12:14:56;9.10;99.90
2825;DHT22;1420;51.324;12.344;2024-01-25T12:17:19;9.30;99.90
2825;DHT22;1420;51.324;12.344;2024-01-25T12:19:46;9.40;99.90
2825;DHT22;1420;51.324;12.344;2024-01-25T12:22:19;9.30;99.90
2825;DHT22;1420;51.324;12.344;2024-01-25T12:24:41;9.40;99.90
2825;DHT22;1420;51.324;12.344;2024-01-25T12:27:09;9.20;99.90
2825;DHT22;1420;51.324;12.344;2024-01-25T12:29:37;9.10;99.90
2825;DHT22;1420;51.324;12.344;2024-01-25T12:32:05;9.10;99.90
2825;DHT22;1420;51.324;12.344;2024-01-25T12:34:33;9.00;99.90
2825;DHT22;1420;51.324;12.344;2024-01-25T12:37:01;8.90;99.90
2825;DHT22;1420;51.324;12.344;2024-01-25T12:39:29;8.90;99.90
2825;DHT22;1420;51.324;12.344;2024-01-25T12:41:56;8.90;99.90
2825;DHT22;1420;51.324;12.344;2024-01-25T12:44:23;9.00;99.90
2825;DHT22;1420;51.324;12.344;2024-01-25T12:46:50;9.00;99.90
2825;DHT22;1420;51.324;12.344;2024-01-25T12:49:17;9.10;99.90
2825;DHT22;1420;51.324;12.344;2024-01-25T12:51:45;8.90;99.90
2825;DHT22;1420;51.324;12.344;2024-01-25T12:54:12;9.00;99.90
2825;DHT22;1420;51.324;12.344;2024-01-25T12:56:39;9.00;99.90
2825;DHT22;1420;51.324;12.344;2024-01-25T12:59:06;9.00;99.90
2825;DHT22;1420;51.324;12.344;2024-01-25T13:01:33;9.00;99.90
2825;DHT22;1420;51.324;12.344;2024-01-25T13:04:01;9.00;99.90
2825;DHT22;1420;51.324;12.344;2024-01-25T13:06:28;9.00;99.90
2825;DHT22;1420;51.324;12.344;2024-01-25T13:08:55;8.90;99.90
2825;DHT22;1420;51.324;12.344;2024-01-25T13:11:22;8.90;99.90
2825;DHT22;1420;51.324;12.344;2024-01-25T13:13:49;9.00;99.90
2825;DHT22;1420;51.324;12.344;2024-01-25T13:16:18;9.00;99.90
2825;DHT22;1420;51.324;12.344;2024-01-25T13:18:46;9.10;99.90
2825;DHT22;1420;51.324;12.344;2024-01-25T13:21:14;9.00;99.90
2825;DHT22;1420;51.324;12.344;2024-01-25T13:23:41;8.90;99.90
2825;DHT22;1420;51.324;12.344;2024-01-25T13:26:08;9.00;99.90
2825;DHT22;1420;51.324;12.344;2024-01-25T13:28:36;8.90;99.90
2825;DHT22;1420;51.324;12.344;2024-01-25T13:31:03;8.90;99.90
2825;DHT22;1420;51.324;12.344;2024-01-25T13:33:30;8.90;99.90
2825;DHT22;1420;51.324;12.344;2024-01-25T13:35:57;8.90;99.90
2825;DHT22;1420;51.324;12.344;2024-01-25T13:38:24;8.90;99.90
2825;DHT22;1420;51.324;12.344;2024-01-25T13:40:52;8.80;99.90
2825;DHT22;1420;51.324;12.344;2024-01-25T13:43:19;8.80;99.90
2825;DHT22;1420;51.324;12.344;2024-01-25T13:45:46;8.70;99.90
2825;DHT22;1420;51.324;12.344;2024-01-25T13:48:13;8.70;99.90
2825;DHT22;1420;51.324;12.344;2024-01-25T13:50:41;8.60;99.90
2825;DHT22;1420;51.324;12.344;2024-01-25T13:53:08;8.50;99.90
2825;DHT22;1420;51.324;12.344;2024-01-25T13:55:35;8.50;99.90
2825;DHT22;1420;51.324;12.344;2024-01-25T13:58:03;8.50;99.90
2825;DHT22;1420;51.324;12.344;2024-01-25T14:00:29;8.40;99.90
2825;DHT22;1420;51.324;12.344;2024-01-25T14:02:57;8.40;99.90
2825;DHT22;1420;51.324;12.344;2024-01-25T14:05:24;8.30;99.90
2825;DHT22;1420;51.324;12.344;2024-01-25T14:07:51;8.30;99.90
2825;DHT22;1420;51.324;12.344;2024-01-25T14:10:18;8.30;99.90
2825;DHT22;1420;51.324;12.344;2024-01-25T14:12:46;8.30;99.90
2825;DHT22;1420;51.324;12.344;2024-01-25T14:15:13;8.30;99.90
2825;DHT22;1420;51.324;12.344;2024-01-25T14:17:40;8.20;99.90
2825;DHT22;1420;51.324;12.344;2024-01-25T14:20:07;8.20;99.90
2825;DHT22;1420;51.324;12.344;2024-01-25T14:22:35;8.10;99.90
2825;DHT22;1420;51.324;12.344;2024-01-25T14:25:03;8.10;99.90
2825;DHT22;1420;51.324;12.344;2024-01-25T14:27:30;8.00;99.90
2825;DHT22;1420;51.324;12.344;2024-01-25T14:29:58;8.10;99.90
2825;DHT22;1420;51.324;12.344;2024-01-25T14:32:25;8.10;99.90
2825;DHT22;1420;51.324;12.344;2024-01-25T14:34:52;8.00;99.90
2825;DHT22;1420;51.324;12.344;2024-01-25T14:37:19;8.00;99.90
2825;DHT22;1420;51.324;12.344;2024-01-25T14:39:46;7.90;99.90
2825;DHT22;1420;51.324;12.344;2024-01-25T14:42:14;7.90;99.90
2825;DHT22;1420;51.324;12.344;2024-01-25T14:44:43;7.90;99.90
2825;DHT22;1420;51.324;12.344;2024-01-25T14:47:11;7.80;99.90
2825;DHT22;1420;51.324;12.344;2024-01-25T14:49:38;7.70;99.90
2825;DHT22;1420;51.324;12.344;2024-01-25T14:52:05;7.80;99.90
2825;DHT22;1420;51.324;12.344;2024-01-25T14:54:32;7.80;99.90
2825;DHT22;1420;51.324;12.344;2024-01-25T14:57:00;7.80;99.90
2825;DHT22;1420;51.324;12.344;2024-01-25T14:59:27;7.70;99.90
2825;DHT22;1420;51.324;12.344;2024-01-25T15:01:54;7.70;99.90
2825;DHT22;1420;51.324;12.344;2024-01-25T15:04:21;7.60;99.90
2825;DHT22;1420;51.324;12.344;2024-01-25T15:06:48;7.60;99.90
2825;DHT22;1420;51.324;12.344;2024-01-25T15:09:16;7.70;99.90
2825;DHT22;1420;51.324;12.344;2024-01-25T15:11:43;7.60;99.90
2825;DHT22;1420;51.324;12.344;2024-01-25T15:14:10;7.50;99.90
2825;DHT22;1420;51.324;12.344;2024-01-25T15:16:37;7.50;99.90
2825;DHT22;1420;51.324;12.344;2024-01-25T15:19:04;7.40;99.90
2825;DHT22;1420;51.324;12.344;2024-01-25T15:21:32;7.30;99.90
2825;DHT22;1420;51.324;12.344;2024-01-25T15:24:00;7.30;99.90
2825;DHT22;1420;51.324;12.344;2024-01-25T15:26:28;7.20;99.90
2825;DHT22;1420;51.324;12.344;2024-01-25T15:28:56;7.20;99.90
2825;DHT22;1420;51.324;12.344;2024-01-25T15:31:23;7.20;99.90
2825;DHT22;1420;51.324;12.344;2024-01-25T15:33:51;7.20;99.90
2825;DHT22;1420;51.324;12.344;2024-01-25T15:36:18;7.20;99.90
2825;DHT22;1420;51.324;12.344;2024-01-25T15:38:45;7.00;99.90
2825;DHT22;1420;51.324;12.344;2024-01-25T15:41:12;7.00;99.90
2825;DHT22;1420;51.324;12.344;2024-01-25T15:43:39;7.00;99.90
2825;DHT22;1420;51.324;12.344;2024-01-25T15:46:07;7.00;99.90
2825;DHT22;1420;51.324;12.344;2024-01-25T15:48:34;7.00;99.90
2825;DHT22;1420;51.324;12.344;2024-01-25T15:51:01;6.90;99.90
2825;DHT22;1420;51.324;12.344;2024-01-25T15:53:28;6.90;99.90
2825;DHT22;1420;51.324;12.344;2024-01-25T15:55:55;6.80;99.90
2825;DHT22;1420;51.324;12.344;2024-01-25T15:58:23;6.80;99.90
2825;DHT22;1420;51.324;12.344;2024-01-25T16:00:50;6.70;99.90
2825;DHT22;1420;51.324;12.344;2024-01-25T16:03:17;6.70;99.90